sensor_id;sensor_type;location;lat;lon;timestamp;P1;durP1;ratioP1;P2;durP2;ratioP2
76065;SDS011;64763;48.928;8.474;2023-04-06T00:00:11;8.93;;;4.97;;
76065;SDS011;64763;48.928;8.474;2023-04-06T00:02:37;10.00;;;4.95;;
76065;SDS011;64763;48.928;8.474;2023-04-06T00:05:03;10.13;;;4.80;;
76065;SDS011;64763;48.928;8.474;2023-04-06T00:07:28;9.20;;;5.15;;
76065;SDS011;64763;48.928;8.474;2023-04-06T00:09:54;11.38;;;5.43;;
76065;SDS011;64763;48.928;8.474;2023-04-06T00:12:20;10.13;;;5.13;;
76065;SDS011;64763;48.928;8.474;2023-04-06T00:14:45;8.10;;;5.20;;
76065;SDS011;64763;48.928;8.474;2023-04-06T00:17:11;7.63;;;4.93;;
76065;SDS011;64763;48.928;8.474;2023-04-06T00:19:36;8.82;;;4.82;;
76065;SDS011;64763;48.928;8.474;2023-04-06T00:22:02;6.15;;;4.30;;
76065;SDS011;64763;48.928;8.474;2023-04-06T00:24:27;8.40;;;4.72;;
76065;SDS011;64763;48.928;8.474;2023-04-06T00:26:53;6.97;;;4.00;;
76065;SDS011;64763;48.928;8.474;2023-04-06T00:29:18;7.53;;;4.68;;
76065;SDS011;64763;48.928;8.474;2023-04-06T00:31:43;7.20;;;4.25;;
76065;SDS011;64763;48.928;8.474;2023-04-06T00:34:09;7.45;;;4.28;;
76065;SDS011;64763;48.928;8.474;2023-04-06T00:36:35;6.88;;;4.20;;
76065;SDS011;64763;48.928;8.474;2023-04-06T00:39:00;7.80;;;4.10;;
76065;SDS011;64763;48.928;8.474;2023-04-06T00:41:26;6.07;;;3.50;;
76065;SDS011;64763;48.928;8.474;2023-04-06T00:43:51;7.00;;;3.80;;
76065;SDS011;64763;48.928;8.474;2023-04-06T00:46:18;7.50;;;5.20;;
76065;SDS011;64763;48.928;8.474;2023-04-06T00:48:43;7.15;;;4.10;;
76065;SDS011;64763;48.928;8.474;2023-04-06T00:51:09;6.80;;;3.88;;
76065;SDS011;64763;48.928;8.474;2023-04-06T00:53:34;6.55;;;4.38;;
76065;SDS011;64763;48.928;8.474;2023-04-06T00:56:00;6.45;;;3.88;;
76065;SDS011;64763;48.928;8.474;2023-04-06T00:58:25;5.88;;;3.67;;
76065;SDS011;64763;48.928;8.474;2023-04-06T01:00:51;9.32;;;4.45;;
76065;SDS011;64763;48.928;8.474;2023-04-06T01:03:16;8.55;;;4.75;;
76065;SDS011;64763;48.928;8.474;2023-04-06T01:05:42;6.25;;;4.00;;
76065;SDS011;64763;48.928;8.474;2023-04-06T01:08:07;6.72;;;3.55;;
76065;SDS011;64763;48.928;8.474;2023-04-06T01:10:33;7.25;;;3.67;;
76065;SDS011;64763;48.928;8.474;2023-04-06T01:12:58;7.22;;;4.15;;
76065;SDS011;64763;48.928;8.474;2023-04-06T01:15:24;7.70;;;4.10;;
76065;SDS011;64763;48.928;8.474;2023-04-06T01:17:50;5.60;;;4.18;;
76065;SDS011;64763;48.928;8.474;2023-04-06T01:20:16;7.80;;;4.70;;
76065;SDS011;64763;48.928;8.474;2023-04-06T01:22:41;8.00;;;4.82;;
76065;SDS011;64763;48.928;8.474;2023-04-06T01:25:07;6.70;;;3.90;;
76065;SDS011;64763;48.928;8.474;2023-04-06T01:27:33;5.80;;;3.80;;
76065;SDS011;64763;48.928;8.474;2023-04-06T01:29:58;6.00;;;4.22;;
76065;SDS011;64763;48.928;8.474;2023-04-06T01:32:24;7.80;;;4.53;;
76065;SDS011;64763;48.928;8.474;2023-04-06T01:34:49;6.95;;;4.40;;
76065;SDS011;64763;48.928;8.474;2023-04-06T01:37:15;6.32;;;4.07;;
76065;SDS011;64763;48.928;8.474;2023-04-06T01:39:41;6.88;;;4.20;;
76065;SDS011;64763;48.928;8.474;2023-04-06T01:42:07;5.53;;;3.97;;
76065;SDS011;64763;48.928;8.474;2023-04-06T01:44:33;8.23;;;3.67;;
76065;SDS011;64763;48.928;8.474;2023-04-06T01:46:58;6.93;;;3.83;;
76065;SDS011;64763;48.928;8.474;2023-04-06T01:49:24;7.53;;;4.15;;
76065;SDS011;64763;48.928;8.474;2023-04-06T01:51:49;6.90;;;3.90;;
76065;SDS011;64763;48.928;8.474;2023-04-06T01:54:15;5.47;;;3.28;;
76065;SDS011;64763;48.928;8.474;2023-04-06T01:56:40;7.65;;;4.22;;
76065;SDS011;64763;48.928;8.474;2023-04-06T01:59:06;5.63;;;3.25;;
76065;SDS011;64763;48.928;8.474;2023-04-06T02:01:31;7.53;;;3.85;;
76065;SDS011;64763;48.928;8.474;2023-04-06T02:03:56;6.10;;;3.58;;
76065;SDS011;64763;48.928;8.474;2023-04-06T02:06:22;5.55;;;2.95;;
76065;SDS011;64763;48.928;8.474;2023-04-06T02:08:47;6.00;;;3.67;;
76065;SDS011;64763;48.928;8.474;2023-04-06T02:11:12;7.35;;;3.90;;
76065;SDS011;64763;48.928;8.474;2023-04-06T02:13:38;6.25;;;3.75;;
76065;SDS011;64763;48.928;8.474;2023-04-06T02:16:03;9.18;;;5.53;;
76065;SDS011;64763;48.928;8.474;2023-04-06T02:18:30;6.65;;;3.90;;
76065;SDS011;64763;48.928;8.474;2023-04-06T02:20:56;6.35;;;4.22;;
76065;SDS011;64763;48.928;8.474;2023-04-06T02:23:21;5.53;;;3.35;;
76065;SDS011;64763;48.928;8.474;2023-04-06T02:25:46;6.70;;;4.32;;
76065;SDS011;64763;48.928;8.474;2023-04-06T02:30:37;9.63;;;3.93;;
76065;SDS011;64763;48.928;8.474;2023-04-06T02:33:02;5.55;;;3.88;;
76065;SDS011;64763;48.928;8.474;2023-04-06T02:35:28;5.90;;;3.95;;
76065;SDS011;64763;48.928;8.474;2023-04-06T02:37:55;7.15;;;4.05;;
76065;SDS011;64763;48.928;8.474;2023-04-06T02:40:20;5.70;;;3.75;;
76065;SDS011;64763;48.928;8.474;2023-04-06T02:42:46;6.03;;;3.88;;
76065;SDS011;64763;48.928;8.474;2023-04-06T02:45:11;6.65;;;4.15;;
76065;SDS011;64763;48.928;8.474;2023-04-06T02:50:02;6.30;;;3.60;;
76065;SDS011;64763;48.928;8.474;2023-04-06T02:54:53;8.15;;;3.80;;
76065;SDS011;64763;48.928;8.474;2023-04-06T02:57:18;5.90;;;3.55;;
76065;SDS011;64763;48.928;8.474;2023-04-06T03:02:09;5.87;;;3.80;;
76065;SDS011;64763;48.928;8.474;2023-04-06T03:07:00;5.13;;;3.20;;
76065;SDS011;64763;48.928;8.474;2023-04-06T03:11:51;4.78;;;3.33;;
76065;SDS011;64763;48.928;8.474;2023-04-06T03:14:16;4.93;;;3.28;;
76065;SDS011;64763;48.928;8.474;2023-04-06T03:16:46;5.85;;;3.55;;
76065;SDS011;64763;48.928;8.474;2023-04-06T03:19:11;6.63;;;3.40;;
76065;SDS011;64763;48.928;8.474;2023-04-06T03:24:02;6.43;;;3.60;;
76065;SDS011;64763;48.928;8.474;2023-04-06T03:28:53;4.93;;;3.33;;
76065;SDS011;64763;48.928;8.474;2023-04-06T03:31:18;6.78;;;3.28;;
76065;SDS011;64763;48.928;8.474;2023-04-06T03:36:09;7.47;;;3.72;;
76065;SDS011;64763;48.928;8.474;2023-04-06T03:41:00;7.00;;;3.40;;
76065;SDS011;64763;48.928;8.474;2023-04-06T03:43:25;7.22;;;3.63;;
76065;SDS011;64763;48.928;8.474;2023-04-06T03:45:51;6.60;;;3.83;;
76065;SDS011;64763;48.928;8.474;2023-04-06T03:48:16;5.55;;;3.47;;
76065;SDS011;64763;48.928;8.474;2023-04-06T03:50:42;5.85;;;3.42;;
76065;SDS011;64763;48.928;8.474;2023-04-06T03:53:07;5.28;;;3.13;;
76065;SDS011;64763;48.928;8.474;2023-04-06T03:55:33;7.90;;;3.92;;
76065;SDS011;64763;48.928;8.474;2023-04-06T03:57:59;7.38;;;3.90;;
76065;SDS011;64763;48.928;8.474;2023-04-06T04:00:24;8.40;;;4.15;;
76065;SDS011;64763;48.928;8.474;2023-04-06T04:05:15;6.75;;;3.63;;
76065;SDS011;64763;48.928;8.474;2023-04-06T04:10:06;7.00;;;3.97;;
76065;SDS011;64763;48.928;8.474;2023-04-06T04:12:32;6.13;;;3.63;;
76065;SDS011;64763;48.928;8.474;2023-04-06T04:14:57;5.57;;;3.85;;
76065;SDS011;64763;48.928;8.474;2023-04-06T04:19:48;6.70;;;3.13;;
76065;SDS011;64763;48.928;8.474;2023-04-06T04:24:38;7.10;;;3.50;;
76065;SDS011;64763;48.928;8.474;2023-04-06T04:27:05;7.60;;;3.53;;
76065;SDS011;64763;48.928;8.474;2023-04-06T04:31:55;6.53;;;3.93;;
76065;SDS011;64763;48.928;8.474;2023-04-06T04:36:48;11.85;;;7.15;;
76065;SDS011;64763;48.928;8.474;2023-04-06T04:39:14;9.70;;;5.50;;
76065;SDS011;64763;48.928;8.474;2023-04-06T04:44:05;9.50;;;5.40;;
76065;SDS011;64763;48.928;8.474;2023-04-06T04:46:30;7.10;;;4.03;;
76065;SDS011;64763;48.928;8.474;2023-04-06T04:51:21;5.30;;;3.70;;
76065;SDS011;64763;48.928;8.474;2023-04-06T04:56:11;8.30;;;3.93;;
76065;SDS011;64763;48.928;8.474;2023-04-06T04:58:37;7.85;;;4.45;;
76065;SDS011;64763;48.928;8.474;2023-04-06T05:01:02;8.15;;;3.88;;
76065;SDS011;64763;48.928;8.474;2023-04-06T05:05:53;5.90;;;3.13;;
76065;SDS011;64763;48.928;8.474;2023-04-06T05:08:18;10.93;;;4.55;;
76065;SDS011;64763;48.928;8.474;2023-04-06T05:10:44;6.88;;;4.30;;
76065;SDS011;64763;48.928;8.474;2023-04-06T05:15:35;7.68;;;5.15;;
76065;SDS011;64763;48.928;8.474;2023-04-06T05:18:03;9.38;;;5.10;;
76065;SDS011;64763;48.928;8.474;2023-04-06T05:20:29;9.95;;;4.90;;
76065;SDS011;64763;48.928;8.474;2023-04-06T05:22:54;10.07;;;5.47;;
76065;SDS011;64763;48.928;8.474;2023-04-06T05:25:19;10.00;;;5.50;;
76065;SDS011;64763;48.928;8.474;2023-04-06T05:30:10;12.93;;;5.90;;
76065;SDS011;64763;48.928;8.474;2023-04-06T05:32:36;10.48;;;5.82;;
76065;SDS011;64763;48.928;8.474;2023-04-06T05:35:04;11.20;;;6.35;;
76065;SDS011;64763;48.928;8.474;2023-04-06T05:37:30;9.90;;;5.93;;
76065;SDS011;64763;48.928;8.474;2023-04-06T05:39:55;8.35;;;5.15;;
76065;SDS011;64763;48.928;8.474;2023-04-06T05:44:47;6.72;;;4.68;;
76065;SDS011;64763;48.928;8.474;2023-04-06T05:47:12;8.13;;;5.10;;
76065;SDS011;64763;48.928;8.474;2023-04-06T05:49:37;9.65;;;4.97;;
76065;SDS011;64763;48.928;8.474;2023-04-06T05:54:29;8.32;;;4.50;;
76065;SDS011;64763;48.928;8.474;2023-04-06T05:56:54;7.03;;;4.40;;
76065;SDS011;64763;48.928;8.474;2023-04-06T05:59:20;8.02;;;4.53;;
76065;SDS011;64763;48.928;8.474;2023-04-06T06:04:11;8.10;;;4.32;;
76065;SDS011;64763;48.928;8.474;2023-04-06T06:06:36;7.97;;;5.00;;
76065;SDS011;64763;48.928;8.474;2023-04-06T06:09:01;7.22;;;4.70;;
76065;SDS011;64763;48.928;8.474;2023-04-06T06:11:28;5.85;;;4.22;;
76065;SDS011;64763;48.928;8.474;2023-04-06T06:13:54;9.30;;;5.90;;
76065;SDS011;64763;48.928;8.474;2023-04-06T06:16:19;8.80;;;5.10;;
76065;SDS011;64763;48.928;8.474;2023-04-06T06:18:45;8.50;;;5.47;;
76065;SDS011;64763;48.928;8.474;2023-04-06T06:21:10;13.18;;;5.78;;
76065;SDS011;64763;48.928;8.474;2023-04-06T06:23:41;11.68;;;5.75;;
76065;SDS011;64763;48.928;8.474;2023-04-06T06:26:07;9.07;;;5.90;;
76065;SDS011;64763;48.928;8.474;2023-04-06T06:28:33;8.13;;;5.95;;
76065;SDS011;64763;48.928;8.474;2023-04-06T06:31:01;13.07;;;7.40;;
76065;SDS011;64763;48.928;8.474;2023-04-06T06:33:27;11.82;;;7.63;;
76065;SDS011;64763;48.928;8.474;2023-04-06T06:35:52;15.98;;;8.10;;
76065;SDS011;64763;48.928;8.474;2023-04-06T06:38:18;10.57;;;6.97;;
76065;SDS011;64763;48.928;8.474;2023-04-06T06:40:44;10.80;;;6.70;;
76065;SDS011;64763;48.928;8.474;2023-04-06T06:43:10;10.15;;;5.82;;
76065;SDS011;64763;48.928;8.474;2023-04-06T06:45:36;8.27;;;5.53;;
76065;SDS011;64763;48.928;8.474;2023-04-06T06:48:01;8.35;;;5.15;;
76065;SDS011;64763;48.928;8.474;2023-04-06T06:50:27;8.43;;;4.55;;
76065;SDS011;64763;48.928;8.474;2023-04-06T06:52:52;6.55;;;4.45;;
76065;SDS011;64763;48.928;8.474;2023-04-06T06:55:18;6.90;;;4.28;;
76065;SDS011;64763;48.928;8.474;2023-04-06T06:57:44;8.55;;;4.55;;
76065;SDS011;64763;48.928;8.474;2023-04-06T07:00:11;10.27;;;4.32;;
76065;SDS011;64763;48.928;8.474;2023-04-06T07:02:40;7.88;;;4.18;;
76065;SDS011;64763;48.928;8.474;2023-04-06T07:05:06;8.45;;;4.53;;
76065;SDS011;64763;48.928;8.474;2023-04-06T07:07:32;5.93;;;4.22;;
76065;SDS011;64763;48.928;8.474;2023-04-06T07:09:58;7.45;;;4.70;;
76065;SDS011;64763;48.928;8.474;2023-04-06T07:12:24;8.90;;;5.60;;
76065;SDS011;64763;48.928;8.474;2023-04-06T07:14:50;8.35;;;6.32;;
76065;SDS011;64763;48.928;8.474;2023-04-06T07:17:15;11.25;;;5.15;;
76065;SDS011;64763;48.928;8.474;2023-04-06T07:19:40;6.72;;;5.32;;
76065;SDS011;64763;48.928;8.474;2023-04-06T07:22:06;8.00;;;5.68;;
76065;SDS011;64763;48.928;8.474;2023-04-06T07:24:31;10.88;;;5.90;;
76065;SDS011;64763;48.928;8.474;2023-04-06T07:26:58;12.30;;;5.80;;
76065;SDS011;64763;48.928;8.474;2023-04-06T07:29:25;8.13;;;5.05;;
76065;SDS011;64763;48.928;8.474;2023-04-06T07:31:51;9.63;;;5.68;;
76065;SDS011;64763;48.928;8.474;2023-04-06T07:34:16;7.03;;;4.38;;
76065;SDS011;64763;48.928;8.474;2023-04-06T07:36:41;7.88;;;5.03;;
76065;SDS011;64763;48.928;8.474;2023-04-06T07:39:07;8.00;;;4.68;;
76065;SDS011;64763;48.928;8.474;2023-04-06T07:41:32;7.70;;;5.32;;
76065;SDS011;64763;48.928;8.474;2023-04-06T07:43:58;12.50;;;4.40;;
76065;SDS011;64763;48.928;8.474;2023-04-06T07:46:23;18.42;;;4.90;;
76065;SDS011;64763;48.928;8.474;2023-04-06T07:48:49;7.25;;;4.50;;
76065;SDS011;64763;48.928;8.474;2023-04-06T07:51:15;14.23;;;4.97;;
76065;SDS011;64763;48.928;8.474;2023-04-06T07:53:42;8.57;;;4.72;;
76065;SDS011;64763;48.928;8.474;2023-04-06T07:56:09;6.95;;;4.55;;
76065;SDS011;64763;48.928;8.474;2023-04-06T07:58:34;7.57;;;4.72;;
76065;SDS011;64763;48.928;8.474;2023-04-06T08:01:00;6.22;;;4.72;;
76065;SDS011;64763;48.928;8.474;2023-04-06T08:03:26;8.80;;;4.72;;
76065;SDS011;64763;48.928;8.474;2023-04-06T08:05:52;11.05;;;5.32;;
76065;SDS011;64763;48.928;8.474;2023-04-06T08:08:17;7.38;;;4.00;;
76065;SDS011;64763;48.928;8.474;2023-04-06T08:10:43;8.73;;;4.80;;
76065;SDS011;64763;48.928;8.474;2023-04-06T08:13:08;8.85;;;4.75;;
76065;SDS011;64763;48.928;8.474;2023-04-06T08:15:34;8.20;;;4.65;;
76065;SDS011;64763;48.928;8.474;2023-04-06T08:17:59;6.28;;;4.63;;
76065;SDS011;64763;48.928;8.474;2023-04-06T08:20:25;7.93;;;5.10;;
76065;SDS011;64763;48.928;8.474;2023-04-06T08:22:50;8.00;;;4.70;;
76065;SDS011;64763;48.928;8.474;2023-04-06T08:25:16;11.38;;;5.03;;
76065;SDS011;64763;48.928;8.474;2023-04-06T08:27:41;7.72;;;4.63;;
76065;SDS011;64763;48.928;8.474;2023-04-06T08:30:06;6.43;;;4.40;;
76065;SDS011;64763;48.928;8.474;2023-04-06T08:32:32;8.10;;;5.20;;
76065;SDS011;64763;48.928;8.474;2023-04-06T08:34:57;6.72;;;5.00;;
76065;SDS011;64763;48.928;8.474;2023-04-06T08:37:23;8.07;;;4.75;;
76065;SDS011;64763;48.928;8.474;2023-04-06T08:39:49;8.35;;;5.38;;
76065;SDS011;64763;48.928;8.474;2023-04-06T08:42:16;7.22;;;4.63;;
76065;SDS011;64763;48.928;8.474;2023-04-06T08:44:45;7.75;;;4.85;;
76065;SDS011;64763;48.928;8.474;2023-04-06T08:47:11;7.63;;;4.72;;
76065;SDS011;64763;48.928;8.474;2023-04-06T08:49:37;6.35;;;4.55;;
76065;SDS011;64763;48.928;8.474;2023-04-06T08:52:05;6.25;;;4.30;;
76065;SDS011;64763;48.928;8.474;2023-04-06T08:54:31;9.30;;;4.75;;
76065;SDS011;64763;48.928;8.474;2023-04-06T08:56:57;8.43;;;4.53;;
76065;SDS011;64763;48.928;8.474;2023-04-06T08:59:23;5.68;;;3.83;;
76065;SDS011;64763;48.928;8.474;2023-04-06T09:01:50;6.15;;;4.60;;
76065;SDS011;64763;48.928;8.474;2023-04-06T09:04:16;8.27;;;4.63;;
76065;SDS011;64763;48.928;8.474;2023-04-06T09:06:42;6.05;;;4.22;;
76065;SDS011;64763;48.928;8.474;2023-04-06T09:09:08;7.15;;;4.32;;
76065;SDS011;64763;48.928;8.474;2023-04-06T09:11:43;8.48;;;4.75;;
76065;SDS011;64763;48.928;8.474;2023-04-06T09:14:13;8.40;;;5.25;;
76065;SDS011;64763;48.928;8.474;2023-04-06T09:16:39;6.68;;;4.60;;
76065;SDS011;64763;48.928;8.474;2023-04-06T09:19:08;5.85;;;4.38;;
76065;SDS011;64763;48.928;8.474;2023-04-06T09:21:34;6.93;;;4.28;;
76065;SDS011;64763;48.928;8.474;2023-04-06T09:24:01;6.68;;;4.55;;
76065;SDS011;64763;48.928;8.474;2023-04-06T09:26:26;6.75;;;4.22;;
76065;SDS011;64763;48.928;8.474;2023-04-06T09:28:58;6.07;;;4.30;;
76065;SDS011;64763;48.928;8.474;2023-04-06T09:31:29;9.63;;;4.75;;
76065;SDS011;64763;48.928;8.474;2023-04-06T09:33:58;7.90;;;4.78;;
76065;SDS011;64763;48.928;8.474;2023-04-06T09:36:33;9.50;;;4.60;;
76065;SDS011;64763;48.928;8.474;2023-04-06T09:39:02;7.93;;;4.82;;
76065;SDS011;64763;48.928;8.474;2023-04-06T09:41:31;7.95;;;5.30;;
76065;SDS011;64763;48.928;8.474;2023-04-06T09:44:02;8.13;;;5.13;;
76065;SDS011;64763;48.928;8.474;2023-04-06T09:46:27;7.75;;;5.45;;
76065;SDS011;64763;48.928;8.474;2023-04-06T09:48:56;7.70;;;5.75;;
76065;SDS011;64763;48.928;8.474;2023-04-06T09:51:21;8.70;;;5.15;;
76065;SDS011;64763;48.928;8.474;2023-04-06T09:53:49;8.35;;;5.72;;
76065;SDS011;64763;48.928;8.474;2023-04-06T09:56:17;7.95;;;5.20;;
76065;SDS011;64763;48.928;8.474;2023-04-06T09:58:45;7.53;;;5.10;;
76065;SDS011;64763;48.928;8.474;2023-04-06T10:01:14;11.25;;;5.32;;
76065;SDS011;64763;48.928;8.474;2023-04-06T10:06:16;10.10;;;5.45;;
76065;SDS011;64763;48.928;8.474;2023-04-06T10:08:45;10.02;;;5.63;;
76065;SDS011;64763;48.928;8.474;2023-04-06T10:11:12;7.50;;;4.97;;
76065;SDS011;64763;48.928;8.474;2023-04-06T10:13:38;8.30;;;5.25;;
76065;SDS011;64763;48.928;8.474;2023-04-06T10:16:03;9.30;;;5.32;;
76065;SDS011;64763;48.928;8.474;2023-04-06T10:18:29;9.98;;;6.88;;
76065;SDS011;64763;48.928;8.474;2023-04-06T10:20:56;9.68;;;6.50;;
76065;SDS011;64763;48.928;8.474;2023-04-06T10:26:21;9.55;;;5.75;;
76065;SDS011;64763;48.928;8.474;2023-04-06T10:28:47;9.43;;;5.70;;
76065;SDS011;64763;48.928;8.474;2023-04-06T10:31:13;8.68;;;5.28;;
76065;SDS011;64763;48.928;8.474;2023-04-06T10:33:39;8.70;;;6.07;;
76065;SDS011;64763;48.928;8.474;2023-04-06T10:36:09;10.23;;;5.88;;
76065;SDS011;64763;48.928;8.474;2023-04-06T10:38:53;9.43;;;5.93;;
76065;SDS011;64763;48.928;8.474;2023-04-06T10:41:19;10.02;;;5.18;;
76065;SDS011;64763;48.928;8.474;2023-04-06T10:43:45;8.73;;;5.35;;
76065;SDS011;64763;48.928;8.474;2023-04-06T10:46:24;8.40;;;6.60;;
76065;SDS011;64763;48.928;8.474;2023-04-06T10:48:53;9.55;;;5.65;;
76065;SDS011;64763;48.928;8.474;2023-04-06T10:51:19;8.55;;;5.72;;
76065;SDS011;64763;48.928;8.474;2023-04-06T10:53:46;8.50;;;5.70;;
76065;SDS011;64763;48.928;8.474;2023-04-06T10:56:14;8.35;;;5.47;;
76065;SDS011;64763;48.928;8.474;2023-04-06T10:58:50;7.53;;;5.05;;
76065;SDS011;64763;48.928;8.474;2023-04-06T11:01:17;7.95;;;4.90;;
76065;SDS011;64763;48.928;8.474;2023-04-06T11:03:47;13.18;;;6.60;;
76065;SDS011;64763;48.928;8.474;2023-04-06T11:06:24;9.35;;;4.88;;
76065;SDS011;64763;48.928;8.474;2023-04-06T11:08:52;9.55;;;5.65;;
76065;SDS011;64763;48.928;8.474;2023-04-06T11:11:18;8.52;;;5.20;;
76065;SDS011;64763;48.928;8.474;2023-04-06T11:16:15;9.88;;;5.45;;
76065;SDS011;64763;48.928;8.474;2023-04-06T11:18:59;8.38;;;5.80;;
76065;SDS011;64763;48.928;8.474;2023-04-06T11:21:35;10.15;;;6.25;;
76065;SDS011;64763;48.928;8.474;2023-04-06T11:24:05;9.93;;;5.85;;
76065;SDS011;64763;48.928;8.474;2023-04-06T11:26:53;9.80;;;4.88;;
76065;SDS011;64763;48.928;8.474;2023-04-06T11:29:20;8.13;;;5.45;;
76065;SDS011;64763;48.928;8.474;2023-04-06T11:31:47;6.90;;;4.32;;
76065;SDS011;64763;48.928;8.474;2023-04-06T11:34:23;8.55;;;5.97;;
76065;SDS011;64763;48.928;8.474;2023-04-06T11:36:54;9.40;;;5.50;;
76065;SDS011;64763;48.928;8.474;2023-04-06T11:39:22;8.30;;;6.03;;
76065;SDS011;64763;48.928;8.474;2023-04-06T11:41:49;7.95;;;5.15;;
76065;SDS011;64763;48.928;8.474;2023-04-06T11:44:15;10.00;;;5.45;;
76065;SDS011;64763;48.928;8.474;2023-04-06T11:46:52;9.13;;;5.22;;
76065;SDS011;64763;48.928;8.474;2023-04-06T11:49:18;7.60;;;5.05;;
76065;SDS011;64763;48.928;8.474;2023-04-06T11:51:43;8.40;;;5.55;;
76065;SDS011;64763;48.928;8.474;2023-04-06T11:54:08;10.00;;;5.50;;
76065;SDS011;64763;48.928;8.474;2023-04-06T11:56:34;10.20;;;6.55;;
76065;SDS011;64763;48.928;8.474;2023-04-06T11:58:59;9.75;;;6.15;;
76065;SDS011;64763;48.928;8.474;2023-04-06T12:01:25;9.93;;;5.40;;
76065;SDS011;64763;48.928;8.474;2023-04-06T12:03:51;9.82;;;5.78;;
76065;SDS011;64763;48.928;8.474;2023-04-06T12:06:17;9.98;;;5.95;;
76065;SDS011;64763;48.928;8.474;2023-04-06T12:08:42;9.43;;;5.80;;
76065;SDS011;64763;48.928;8.474;2023-04-06T12:11:08;10.57;;;6.10;;
76065;SDS011;64763;48.928;8.474;2023-04-06T12:13:33;9.15;;;5.53;;
76065;SDS011;64763;48.928;8.474;2023-04-06T12:15:59;10.73;;;6.05;;
76065;SDS011;64763;48.928;8.474;2023-04-06T12:18:24;8.10;;;5.25;;
76065;SDS011;64763;48.928;8.474;2023-04-06T12:20:50;8.98;;;5.53;;
76065;SDS011;64763;48.928;8.474;2023-04-06T12:23:16;10.48;;;6.68;;
76065;SDS011;64763;48.928;8.474;2023-04-06T12:25:42;9.25;;;5.50;;
76065;SDS011;64763;48.928;8.474;2023-04-06T12:28:07;9.40;;;5.55;;
76065;SDS011;64763;48.928;8.474;2023-04-06T12:30:34;9.48;;;5.78;;
76065;SDS011;64763;48.928;8.474;2023-04-06T12:33:00;10.02;;;6.57;;
76065;SDS011;64763;48.928;8.474;2023-04-06T12:35:26;10.63;;;5.60;;
76065;SDS011;64763;48.928;8.474;2023-04-06T12:37:51;8.57;;;4.90;;
76065;SDS011;64763;48.928;8.474;2023-04-06T12:40:17;10.48;;;6.43;;
76065;SDS011;64763;48.928;8.474;2023-04-06T12:42:42;8.70;;;6.03;;
76065;SDS011;64763;48.928;8.474;2023-04-06T12:45:08;7.63;;;5.65;;
76065;SDS011;64763;48.928;8.474;2023-04-06T12:47:34;9.68;;;6.25;;
76065;SDS011;64763;48.928;8.474;2023-04-06T12:50:00;9.75;;;6.18;;
76065;SDS011;64763;48.928;8.474;2023-04-06T12:52:26;10.48;;;6.20;;
76065;SDS011;64763;48.928;8.474;2023-04-06T12:54:52;12.20;;;6.60;;
76065;SDS011;64763;48.928;8.474;2023-04-06T12:57:17;9.75;;;6.47;;
76065;SDS011;64763;48.928;8.474;2023-04-06T12:59:43;9.10;;;6.43;;
76065;SDS011;64763;48.928;8.474;2023-04-06T13:02:09;10.93;;;6.53;;
76065;SDS011;64763;48.928;8.474;2023-04-06T13:04:35;8.93;;;5.80;;
76065;SDS011;64763;48.928;8.474;2023-04-06T13:07:00;8.18;;;5.70;;
76065;SDS011;64763;48.928;8.474;2023-04-06T13:09:26;12.73;;;5.97;;
76065;SDS011;64763;48.928;8.474;2023-04-06T13:11:51;9.02;;;5.40;;
76065;SDS011;64763;48.928;8.474;2023-04-06T13:14:17;7.22;;;4.72;;
76065;SDS011;64763;48.928;8.474;2023-04-06T13:16:42;7.88;;;4.97;;
76065;SDS011;64763;48.928;8.474;2023-04-06T13:19:07;9.20;;;5.07;;
76065;SDS011;64763;48.928;8.474;2023-04-06T13:21:33;8.35;;;5.32;;
76065;SDS011;64763;48.928;8.474;2023-04-06T13:23:58;8.25;;;4.97;;
76065;SDS011;64763;48.928;8.474;2023-04-06T13:26:24;7.80;;;4.53;;
76065;SDS011;64763;48.928;8.474;2023-04-06T13:28:50;7.93;;;5.00;;
76065;SDS011;64763;48.928;8.474;2023-04-06T13:31:16;6.80;;;4.35;;
76065;SDS011;64763;48.928;8.474;2023-04-06T13:33:41;8.25;;;5.28;;
76065;SDS011;64763;48.928;8.474;2023-04-06T13:36:07;6.32;;;3.85;;
76065;SDS011;64763;48.928;8.474;2023-04-06T13:38:33;6.50;;;4.55;;
76065;SDS011;64763;48.928;8.474;2023-04-06T13:40:58;6.22;;;3.97;;
76065;SDS011;64763;48.928;8.474;2023-04-06T13:43:24;6.90;;;4.13;;
76065;SDS011;64763;48.928;8.474;2023-04-06T13:45:51;7.80;;;3.70;;
76065;SDS011;64763;48.928;8.474;2023-04-06T13:48:19;6.15;;;4.13;;
76065;SDS011;64763;48.928;8.474;2023-04-06T13:50:45;7.55;;;4.85;;
76065;SDS011;64763;48.928;8.474;2023-04-06T13:53:10;8.07;;;4.57;;
76065;SDS011;64763;48.928;8.474;2023-04-06T13:55:36;7.03;;;4.90;;
76065;SDS011;64763;48.928;8.474;2023-04-06T13:58:01;8.10;;;5.47;;
76065;SDS011;64763;48.928;8.474;2023-04-06T14:00:27;6.95;;;4.90;;
76065;SDS011;64763;48.928;8.474;2023-04-06T14:02:55;9.00;;;5.32;;
76065;SDS011;64763;48.928;8.474;2023-04-06T14:05:21;9.68;;;4.75;;
76065;SDS011;64763;48.928;8.474;2023-04-06T14:07:48;7.95;;;4.97;;
76065;SDS011;64763;48.928;8.474;2023-04-06T14:10:13;6.35;;;3.92;;
76065;SDS011;64763;48.928;8.474;2023-04-06T14:12:43;6.78;;;4.10;;
76065;SDS011;64763;48.928;8.474;2023-04-06T14:15:11;6.38;;;4.32;;
76065;SDS011;64763;48.928;8.474;2023-04-06T14:17:37;8.27;;;4.75;;
76065;SDS011;64763;48.928;8.474;2023-04-06T14:20:03;6.38;;;4.32;;
76065;SDS011;64763;48.928;8.474;2023-04-06T14:22:30;7.03;;;4.00;;
76065;SDS011;64763;48.928;8.474;2023-04-06T14:24:56;6.32;;;3.97;;
76065;SDS011;64763;48.928;8.474;2023-04-06T14:27:21;6.28;;;4.13;;
76065;SDS011;64763;48.928;8.474;2023-04-06T14:29:47;7.45;;;4.05;;
76065;SDS011;64763;48.928;8.474;2023-04-06T14:32:12;6.78;;;3.55;;
76065;SDS011;64763;48.928;8.474;2023-04-06T14:34:37;6.47;;;3.60;;
76065;SDS011;64763;48.928;8.474;2023-04-06T14:37:03;7.68;;;3.80;;
76065;SDS011;64763;48.928;8.474;2023-04-06T14:39:28;7.65;;;4.28;;
76065;SDS011;64763;48.928;8.474;2023-04-06T14:41:53;6.30;;;3.42;;
76065;SDS011;64763;48.928;8.474;2023-04-06T14:44:19;5.32;;;3.47;;
76065;SDS011;64763;48.928;8.474;2023-04-06T14:46:45;6.05;;;3.58;;
76065;SDS011;64763;48.928;8.474;2023-04-06T14:49:11;8.85;;;4.72;;
76065;SDS011;64763;48.928;8.474;2023-04-06T14:51:36;6.97;;;4.22;;
76065;SDS011;64763;48.928;8.474;2023-04-06T14:54:02;8.60;;;5.07;;
76065;SDS011;64763;48.928;8.474;2023-04-06T14:56:30;9.35;;;4.05;;
76065;SDS011;64763;48.928;8.474;2023-04-06T14:58:59;6.43;;;4.20;;
76065;SDS011;64763;48.928;8.474;2023-04-06T15:01:26;6.43;;;3.90;;
76065;SDS011;64763;48.928;8.474;2023-04-06T15:03:52;5.85;;;3.72;;
76065;SDS011;64763;48.928;8.474;2023-04-06T15:06:17;8.38;;;5.00;;
76065;SDS011;64763;48.928;8.474;2023-04-06T15:08:45;7.38;;;4.55;;
76065;SDS011;64763;48.928;8.474;2023-04-06T15:11:12;6.38;;;4.10;;
76065;SDS011;64763;48.928;8.474;2023-04-06T15:13:38;7.75;;;4.13;;
76065;SDS011;64763;48.928;8.474;2023-04-06T15:16:04;8.70;;;4.80;;
76065;SDS011;64763;48.928;8.474;2023-04-06T15:18:30;7.55;;;4.45;;
76065;SDS011;64763;48.928;8.474;2023-04-06T15:20:55;8.15;;;4.85;;
76065;SDS011;64763;48.928;8.474;2023-04-06T15:23:21;7.40;;;4.13;;
76065;SDS011;64763;48.928;8.474;2023-04-06T15:25:46;7.53;;;4.25;;
76065;SDS011;64763;48.928;8.474;2023-04-06T15:28:12;7.55;;;4.15;;
76065;SDS011;64763;48.928;8.474;2023-04-06T15:30:37;7.47;;;4.45;;
76065;SDS011;64763;48.928;8.474;2023-04-06T15:33:03;7.97;;;4.20;;
76065;SDS011;64763;48.928;8.474;2023-04-06T15:35:30;7.75;;;4.63;;
76065;SDS011;64763;48.928;8.474;2023-04-06T15:37:56;9.05;;;5.43;;
76065;SDS011;64763;48.928;8.474;2023-04-06T15:40:22;8.50;;;5.15;;
76065;SDS011;64763;48.928;8.474;2023-04-06T15:42:47;8.48;;;4.82;;
76065;SDS011;64763;48.928;8.474;2023-04-06T15:45:13;10.63;;;5.22;;
76065;SDS011;64763;48.928;8.474;2023-04-06T15:47:39;10.98;;;4.82;;